Time;durP1;ratioP1;P1;durP2;ratioP2;P2;SDS_P1;SDS_P2;PMS_P1;PMS_P2;Temp;Humidity;BMP_temperature;BMP_pressure;BME280_temperature;BME280_humidity;BME280_pressure;Samples;Min_cycle;Max_cycle;Signal;HPM_P1;HPM_P2
2022/10/18 00:00:37;;;;;;;6.13;2.92;;;;;;;12.27;100.00;97227.28;5038413;28;20201;-73
2022/10/18 00:03:04;;;;;;;5.80;3.25;;;;;;;12.25;100.00;97223.16;5037688;28;20222;-73
2022/10/18 00:05:30;;;;;;;8.02;3.72;;;;;;;12.18;100.00;97227.41;5037097;28;20696;-74
2022/10/18 00:07:57;;;;;;;8.73;4.00;;;;;;;12.20;100.00;97228.91;5037707;28;20198;-73
2022/10/18 00:10:24;;;;;;;9.93;3.38;;;;;;;12.18;100.00;97235.34;5037864;28;20201;-72
2022/10/18 00:12:52;;;;;;;8.35;3.50;;;;;;;12.23;100.00;97225.97;5036489;28;20723;-73
2022/10/18 00:15:19;;;;;;;5.20;3.27;;;;;;;12.11;100.00;97221.16;5037480;28;20937;-73
2022/10/18 00:17:45;;;;;;;6.28;3.70;;;;;;;12.11;100.00;97220.34;5037572;28;20229;-72
2022/10/18 00:20:14;;;;;;;8.40;3.45;;;;;;;12.14;100.00;97222.63;5037482;28;20205;-73
2022/10/18 00:22:41;;;;;;;7.30;3.28;;;;;;;12.14;100.00;97220.00;5036364;28;20225;-72
2022/10/18 00:25:09;;;;;;;9.35;3.75;;;;;;;12.16;100.00;97215.38;5037693;28;20200;-72
2022/10/18 00:27:36;;;;;;;11.70;3.93;;;;;;;12.16;100.00;97222.31;5037471;28;20243;-73
2022/10/18 00:30:05;;;;;;;8.83;3.80;;;;;;;12.21;100.00;97217.34;5037375;28;20197;-72
2022/10/18 00:32:36;;;;;;;11.07;3.88;;;;;;;12.25;100.00;97223.16;5036405;28;20217;-72
2022/10/18 00:35:02;;;;;;;18.33;4.50;;;;;;;12.18;100.00;97228.25;5037118;28;20318;-74
2022/10/18 00:37:29;;;;;;;6.80;3.80;;;;;;;12.22;100.00;97223.50;5036577;28;20705;-73
2022/10/18 00:39:55;;;;;;;7.40;3.60;;;;;;;12.19;100.00;97227.28;5037280;28;20216;-72
2022/10/18 00:42:26;;;;;;;6.53;3.40;;;;;;;12.18;100.00;97232.69;5036371;28;20232;-73
2022/10/18 00:45:03;;;;;;;8.90;4.00;;;;;;;12.22;100.00;97219.03;5036757;28;20197;-73
2022/10/18 00:47:32;;;;;;;5.60;3.17;;;;;;;12.20;100.00;97225.47;5036996;28;20673;-72
2022/10/18 00:50:03;;;;;;;10.93;4.13;;;;;;;12.15;100.00;97222.47;5036929;28;20213;-73
2022/10/18 00:52:35;;;;;;;7.07;3.37;;;;;;;12.16;100.00;97223.31;5036444;28;20686;-71
2022/10/18 00:55:03;;;;;;;6.87;3.63;;;;;;;12.10;100.00;97221.31;5036710;28;20213;-72
2022/10/18 00:57:29;;;;;;;7.32;4.07;;;;;;;12.08;100.00;97233.84;5036746;28;20221;-72
2022/10/18 00:59:56;;;;;;;8.73;3.20;;;;;;;12.04;100.00;97235.16;5036996;28;20212;-72
2022/10/18 01:02:23;;;;;;;7.40;3.30;;;;;;;12.02;100.00;97229.22;5035029;28;20225;-72
2022/10/18 01:04:51;;;;;;;6.50;3.57;;;;;;;12.10;100.00;97227.41;5036340;28;20205;-71
2022/10/18 01:07:30;;;;;;;6.40;3.65;;;;;;;12.15;100.00;97230.41;5036945;28;20201;-72
2022/10/18 01:10:03;;;;;;;5.90;3.60;;;;;;;12.09;100.00;97219.66;5036728;28;20197;-71
2022/10/18 01:12:44;;;;;;;6.13;3.67;;;;;;;12.17;100.00;97221.31;5035922;28;20221;-71
2022/10/18 01:15:16;;;;;;;14.10;4.30;;;;;;;12.13;100.00;97218.34;5037331;28;20205;-71
2022/10/18 01:17:52;;;;;;;11.45;3.75;;;;;;;12.16;100.00;97219.66;5036189;28;20997;-71
2022/10/18 01:20:46;;;;;;;19.70;4.60;;;;;;;12.22;100.00;97219.03;5036210;28;20201;-72
2022/10/18 01:23:19;;;;;;;12.00;3.83;;;;;;;12.23;100.00;97228.59;5036059;28;20217;-72
2022/10/18 01:25:56;;;;;;;7.30;4.03;;;;;;;12.21;100.00;97225.28;5036774;28;20212;-72
2022/10/18 01:28:43;;;;;;;8.53;3.97;;;;;;;12.24;100.00;97227.63;5036798;28;20192;-72
2022/10/18 01:31:14;;;;;;;11.10;3.60;;;;;;;12.29;100.00;97222.66;5036598;28;20197;-73
2022/10/18 01:33:47;;;;;;;6.07;3.80;;;;;;;12.22;100.00;97223.50;5035836;28;20205;-73
2022/10/18 01:36:19;;;;;;;6.73;3.90;;;;;;;12.09;100.00;97223.09;5035859;28;20739;-71
2022/10/18 01:38:49;;;;;;;6.43;3.38;;;;;;;11.99;100.00;97221.59;5036492;28;20599;-72
2022/10/18 01:41:18;;;;;;;6.80;3.70;;;;;;;11.96;100.00;97219.31;5036232;28;20757;-72
2022/10/18 01:43:48;;;;;;;7.83;3.57;;;;;;;11.99;100.00;97221.59;5035329;28;20247;-72
2022/10/18 01:46:22;;;;;;;4.72;3.10;;;;;;;12.06;100.00;97222.63;5036611;28;20270;-72
2022/10/18 01:48:48;;;;;;;5.33;3.10;;;;;;;11.95;100.00;97222.94;5036390;28;20208;-72
2022/10/18 01:51:18;;;;;;;9.77;3.87;;;;;;;12.03;100.00;97222.94;5036237;28;20216;-71
2022/10/18 01:53:44;;;;;;;6.70;3.57;;;;;;;12.00;100.00;97228.56;5035410;28;20205;-71
2022/10/18 01:56:25;;;;;;;6.10;3.40;;;;;;;12.17;100.00;97226.59;5036318;28;20672;-71
2022/10/18 01:59:10;;;;;;;5.30;3.40;;;;;;;12.12;100.00;97228.09;5034740;28;20243;-71
2022/10/18 02:01:46;;;;;;;13.07;3.45;;;;;;;12.04;100.00;97224.59;5036027;28;20221;-71
2022/10/18 02:04:22;;;;;;;7.90;3.20;;;;;;;12.03;100.00;97230.84;5035858;28;20204;-71
2022/10/18 02:06:55;;;;;;;7.97;3.15;;;;;;;11.96;100.00;97237.78;5035860;28;21366;-71
2022/10/18 02:09:31;;;;;;;3.83;2.80;;;;;;;11.79;100.00;97236.09;5036361;28;20205;-71
2022/10/18 02:11:58;;;;;;;5.57;3.15;;;;;;;11.68;100.00;97239.03;5036197;28;20217;-71
2022/10/18 02:14:26;;;;;;;6.78;2.58;;;;;;;11.68;100.00;97234.59;5035501;28;20208;-72
2022/10/18 02:16:56;;;;;;;6.83;2.97;;;;;;;11.74;100.00;97238.38;5039632;28;20193;-71
2022/10/18 02:19:27;;;;;;;5.13;2.87;;;;;;;11.80;100.00;97232.44;5039925;28;20202;-71
2022/10/18 02:21:57;;;;;;;6.17;3.20;;;;;;;11.74;100.00;97227.81;5039288;28;20228;-71
2022/10/18 02:24:30;;;;;;;6.60;3.23;;;;;;;11.77;100.00;97228.34;5038871;28;20707;-71
2022/10/18 02:26:57;;;;;;;5.40;3.07;;;;;;;11.73;100.00;97226.97;5040796;28;20205;-71
2022/10/18 02:29:23;;;;;;;8.77;3.10;;;;;;;11.70;100.00;97232.59;5039703;28;20201;-72
2022/10/18 02:31:58;;;;;;;5.38;3.05;;;;;;;11.81;100.00;97234.09;5038884;28;20225;-71
2022/10/18 02:34:30;;;;;;;6.50;2.80;;;;;;;11.88;100.00;97227.22;5038754;28;20204;-72
2022/10/18 02:36:59;;;;;;;8.17;3.40;;;;;;;11.77;100.00;97223.06;5040208;28;20205;-72
2022/10/18 02:39:30;;;;;;;4.40;2.87;;;;;;;11.78;100.00;97224.69;5039715;28;20197;-72
2022/10/18 02:41:58;;;;;;;7.30;3.10;;;;;;;11.77;100.00;97223.06;5039178;28;20579;-72
2022/10/18 02:44:24;;;;;;;4.93;2.90;;;;;;;11.77;100.00;97216.94;5038913;28;20205;-72
2022/10/18 02:46:51;;;;;;;5.07;3.10;;;;;;;11.74;100.00;97227.81;5036970;28;20212;-72
2022/10/18 02:49:19;;;;;;;9.57;3.40;;;;;;;11.73;100.00;97226.16;5039002;28;20202;-72
2022/10/18 02:51:45;;;;;;;7.23;3.53;;;;;;;11.62;100.00;97226.44;5038642;28;20232;-72
2022/10/18 02:54:12;;;;;;;7.03;3.67;;;;;;;11.77;100.00;97232.78;5038539;28;20721;-72
2022/10/18 02:56:38;;;;;;;7.50;3.80;;;;;;;11.82;100.00;97231.31;5038577;28;20229;-72
2022/10/18 02:59:06;;;;;;;7.70;3.90;;;;;;;11.82;100.00;97227.84;5039365;28;20221;-72
2022/10/18 03:01:32;;;;;;;7.43;3.58;;;;;;;11.84;100.00;97233.81;5038952;28;20221;-72
2022/10/18 03:03:59;;;;;;;4.80;3.40;;;;;;;11.81;100.00;97239.38;5037948;28;20207;-72
2022/10/18 03:06:27;;;;;;;24.67;15.60;;;;;;;11.96;100.00;97237.78;5038817;28;20563;-72
2022/10/18 03:08:54;;;;;;;8.00;4.53;;;;;;;11.88;100.00;97237.78;5038890;28;20250;-72
2022/10/18 03:11:21;;;;;;;6.37;3.80;;;;;;;11.80;100.00;97238.56;5038756;28;20694;-72
2022/10/18 03:13:49;;;;;;;7.27;3.87;;;;;;;11.90;100.00;97243.72;5037739;28;20673;-72
2022/10/18 03:16:15;;;;;;;6.23;3.50;;;;;;;11.92;100.00;97239.09;5038507;28;20292;-72
2022/10/18 03:18:42;;;;;;;5.20;3.57;;;;;;;11.95;100.00;97236.97;5038695;28;20225;-72
2022/10/18 03:21:09;;;;;;;5.20;3.50;;;;;;;12.03;100.00;97233.50;5038449;28;20308;-73
2022/10/18 03:23:37;;;;;;;6.50;3.87;;;;;;;12.13;100.00;97229.75;5037521;28;20217;-73
2022/10/18 03:26:03;;;;;;;8.97;3.80;;;;;;;12.10;100.00;97230.06;5038205;28;20292;-73
2022/10/18 03:28:30;;;;;;;7.50;3.80;;;;;;;12.13;100.00;97226.25;5038261;28;20197;-72
2022/10/18 03:31:00;;;;;;;6.47;3.37;;;;;;;12.28;100.00;97218.38;5038395;28;20205;-72
2022/10/18 03:33:27;;;;;;;10.93;5.07;;;;;;;12.27;100.00;97214.06;5037702;28;20784;-73
2022/10/18 03:35:53;;;;;;;12.32;6.82;;;;;;;12.30;100.00;97221.66;5037375;28;20205;-73
2022/10/18 03:38:20;;;;;;;7.87;4.87;;;;;;;12.34;100.00;97222.16;5038397;28;20220;-72
2022/10/18 03:40:47;;;;;;;7.87;4.30;;;;;;;12.41;100.00;97224.00;5038960;28;20198;-72
2022/10/18 03:43:14;;;;;;;6.97;4.45;;;;;;;12.39;100.00;97225.97;5037249;28;20607;-72
2022/10/18 03:45:40;;;;;;;8.52;4.45;;;;;;;12.42;100.00;97220.38;5037965;28;20212;-72
2022/10/18 03:48:07;;;;;;;15.45;5.50;;;;;;;12.33;100.00;97226.66;5037778;28;20204;-72
2022/10/18 03:50:34;;;;;;;11.05;5.97;;;;;;;12.48;100.00;97234.75;5037995;28;20227;-72
2022/10/18 03:53:00;;;;;;;14.50;5.65;;;;;;;12.62;100.00;97220.88;5038236;28;20221;-72
2022/10/18 03:55:27;;;;;;;10.70;5.70;;;;;;;12.67;100.00;97222.00;5037638;28;20205;-73
2022/10/18 03:57:54;;;;;;;13.68;5.28;;;;;;;12.77;100.00;97223.47;5037509;28;21159;-72
2022/10/18 04:00:21;;;;;;;13.57;6.88;;;;;;;12.69;100.00;97214.75;5038222;28;20666;-72
2022/10/18 04:02:48;;;;;;;16.80;7.78;;;;;;;12.78;100.00;97222.50;5037096;28;20233;-73
2022/10/18 04:05:14;;;;;;;13.77;6.95;;;;;;;12.87;100.00;97215.44;5037670;28;20205;-72
2022/10/18 04:07:41;;;;;;;29.25;11.43;;;;;;;12.82;100.00;97220.34;5038072;28;20212;-73
2022/10/18 04:10:08;;;;;;;28.90;10.32;;;;;;;12.91;100.00;97216.75;5037432;28;20693;-73
2022/10/18 04:12:34;;;;;;;32.05;9.98;;;;;;;12.90;100.00;97215.91;5036531;28;20749;-73
2022/10/18 04:15:03;;;;;;;42.10;12.20;;;;;;;12.92;100.00;97221.03;5038075;28;20203;-72
2022/10/18 04:17:29;;;;;;;20.92;7.38;;;;;;;12.99;100.00;97212.25;5037335;28;20680;-72
2022/10/18 04:19:56;;;;;;;28.98;9.25;;;;;;;13.05;100.00;97205.47;5037375;28;20201;-71
2022/10/18 04:22:22;;;;;;;15.88;7.63;;;;;;;13.00;100.00;97200.66;5037014;28;20221;-72
2022/10/18 04:24:49;;;;;;;16.77;7.95;;;;;;;12.97;100.00;97205.47;5037358;28;20205;-72
2022/10/18 04:27:15;;;;;;;17.95;8.20;;;;;;;12.93;100.00;97205.00;5037545;28;20208;-72
2022/10/18 04:29:42;;;;;;;34.72;10.98;;;;;;;12.93;100.00;97210.28;5037324;28;20553;-72
2022/10/18 04:32:09;;;;;;;26.17;9.00;;;;;;;13.05;100.00;97211.56;5036764;28;20741;-72
2022/10/18 04:34:36;;;;;;;32.70;8.95;;;;;;;13.00;100.00;97213.91;5037099;28;20207;-72
2022/10/18 04:37:02;;;;;;;16.73;7.00;;;;;;;12.95;100.00;97212.75;5037211;28;20201;-73
2022/10/18 04:39:29;;;;;;;19.52;7.68;;;;;;;12.89;100.00;97224.00;5037184;28;20228;-72
2022/10/18 04:41:56;;;;;;;16.83;7.30;;;;;;;13.01;100.00;97220.03;5037014;28;20216;-72
2022/10/18 04:44:22;;;;;;;21.20;8.25;;;;;;;13.04;100.00;97222.34;5036565;28;20197;-72
2022/10/18 04:46:49;;;;;;;23.20;8.38;;;;;;;13.00;100.00;97221.03;5037077;28;20580;-72
2022/10/18 04:49:17;;;;;;;30.05;9.82;;;;;;;13.07;100.00;97222.00;5037209;28;20216;-72
2022/10/18 04:51:43;;;;;;;23.50;7.97;;;;;;;13.02;100.00;97224.31;5037028;28;20229;-73
2022/10/18 04:54:10;;;;;;;17.40;7.88;;;;;;;13.03;100.00;97221.50;5036436;28;20208;-72
2022/10/18 04:56:36;;;;;;;14.18;7.22;;;;;;;13.04;100.00;97220.50;5037593;28;20201;-72
2022/10/18 04:59:03;;;;;;;24.77;8.00;;;;;;;13.04;100.00;97223.16;5036958;28;20243;-73
2022/10/18 05:01:29;;;;;;;19.60;7.80;;;;;;;13.08;100.00;97218.34;5036352;28;20225;-72
2022/10/18 05:03:56;;;;;;;19.25;8.05;;;;;;;13.13;100.00;97216.03;5036506;28;20205;-72
2022/10/18 05:06:24;;;;;;;16.90;6.25;;;;;;;13.18;100.00;97203.94;5036933;28;20208;-72
2022/10/18 05:08:50;;;;;;;12.93;7.32;;;;;;;13.07;100.00;97206.13;5036624;28;20197;-72
2022/10/18 05:11:17;;;;;;;13.68;6.22;;;;;;;13.12;100.00;97203.78;5036437;28;20744;-72
2022/10/18 05:13:44;;;;;;;14.32;6.53;;;;;;;13.14;100.00;97202.63;5036338;28;20212;-73
2022/10/18 05:16:10;;;;;;;14.25;6.28;;;;;;;13.13;100.00;97211.56;5036842;28;20212;-73
2022/10/18 05:18:37;;;;;;;12.88;6.20;;;;;;;13.12;100.00;97220.50;5036724;28;20274;-72
2022/10/18 05:21:03;;;;;;;13.40;6.97;;;;;;;13.18;100.00;97217.16;5036807;28;20205;-72
2022/10/18 05:23:31;;;;;;;10.65;6.20;;;;;;;13.25;100.00;97219.97;5036057;28;20205;-72
2022/10/18 05:26:01;;;;;;;13.98;6.45;;;;;;;13.26;100.00;97222.44;5037304;28;20201;-72
2022/10/18 05:28:28;;;;;;;13.20;6.68;;;;;;;13.20;100.00;97230.22;5036794;28;20197;-72
2022/10/18 05:30:54;;;;;;;12.80;7.15;;;;;;;13.18;100.00;97237.53;5037035;28;20197;-72
2022/10/18 05:33:21;;;;;;;16.45;7.03;;;;;;;13.23;100.00;97236.03;5036342;28;20201;-72
2022/10/18 05:35:47;;;;;;;11.55;6.38;;;;;;;13.31;100.00;97232.53;5036621;28;20216;-72
2022/10/18 05:38:14;;;;;;;16.33;6.22;;;;;;;13.31;100.00;97222.75;5036159;28;20232;-72
2022/10/18 05:40:42;;;;;;;11.10;6.78;;;;;;;13.41;100.00;97231.34;5036574;28;20266;-72
2022/10/18 05:43:08;;;;;;;13.35;6.32;;;;;;;13.34;100.00;97229.53;5035700;28;20239;-73
2022/10/18 05:45:35;;;;;;;12.23;6.18;;;;;;;13.28;100.00;97227.59;5036449;28;20201;-72
2022/10/18 05:48:01;;;;;;;10.65;6.00;;;;;;;13.33;100.00;97222.56;5036019;28;20602;-72
2022/10/18 05:50:31;;;;;;;15.73;6.43;;;;;;;13.35;100.00;97220.59;5038399;28;20208;-72
2022/10/18 05:52:58;;;;;;;13.98;6.68;;;;;;;13.36;100.00;97231.00;5039872;28;20939;-72
2022/10/18 05:55:24;;;;;;;12.63;6.60;;;;;;;13.33;100.00;97227.88;5040647;28;20201;-72
2022/10/18 05:57:52;;;;;;;13.07;6.00;;;;;;;13.42;100.00;97227.69;5040457;28;20201;-71
2022/10/18 06:00:19;;;;;;;15.75;6.97;;;;;;;13.22;100.00;97236.19;5040474;28;20225;-72
2022/10/18 06:02:45;;;;;;;11.13;5.95;;;;;;;13.30;100.00;97222.94;5039592;28;20236;-72
2022/10/18 06:05:12;;;;;;;14.23;5.75;;;;;;;13.36;100.00;97220.44;5040457;28;20197;-71
2022/10/18 06:07:38;;;;;;;11.82;6.82;;;;;;;13.41;100.00;97229.50;5039668;28;20213;-72
2022/10/18 06:10:06;;;;;;;15.43;7.18;;;;;;;13.38;100.00;97229.84;5040170;28;20193;-72
2022/10/18 06:12:32;;;;;;;13.77;6.90;;;;;;;13.39;100.00;97228.03;5039835;28;20228;-71
2022/10/18 06:15:00;;;;;;;12.27;6.32;;;;;;;13.48;100.00;97227.84;5039573;28;21339;-72
2022/10/18 06:17:27;;;;;;;12.98;6.65;;;;;;;13.48;100.00;97227.03;5039965;28;20205;-72
2022/10/18 06:19:53;;;;;;;12.48;6.55;;;;;;;13.47;100.00;97236.78;5039883;28;20221;-71
2022/10/18 06:22:20;;;;;;;20.40;7.30;;;;;;;13.45;100.00;97227.34;5038211;28;20221;-72
2022/10/18 06:24:46;;;;;;;13.40;6.50;;;;;;;13.48;100.00;97217.25;5038689;28;20201;-72
2022/10/18 06:27:13;;;;;;;18.20;7.10;;;;;;;13.49;100.00;97234.78;5040052;28;20193;-72
2022/10/18 06:29:40;;;;;;;13.23;6.78;;;;;;;13.56;100.00;97225.16;5039238;28;20994;-72
2022/10/18 06:32:08;;;;;;;9.80;5.85;;;;;;;13.70;100.00;97231.56;5038593;28;20290;-72
2022/10/18 06:34:35;;;;;;;14.07;6.10;;;;;;;13.57;100.00;97220.69;5038774;28;20570;-72
2022/10/18 06:37:01;;;;;;;10.93;6.68;;;;;;;13.56;100.00;97227.00;5040039;28;20205;-72
2022/10/18 06:39:28;;;;;;;11.60;6.13;;;;;;;13.62;100.00;97235.06;5038807;28;20720;-72
2022/10/18 06:41:55;;;;;;;11.77;6.70;;;;;;;13.77;100.00;97235.16;5039313;28;20224;-72
2022/10/18 06:44:22;;;;;;;13.23;7.18;;;;;;;13.87;100.00;97239.25;5038744;28;20680;-72
2022/10/18 06:46:48;;;;;;;10.23;6.47;;;;;;;13.96;100.00;97242.69;5038869;28;20247;-71
2022/10/18 06:49:16;;;;;;;12.48;6.57;;;;;;;14.03;100.00;97249.78;5039304;28;20205;-72
2022/10/18 06:51:43;;;;;;;11.80;6.72;;;;;;;14.00;100.00;97255.41;5038702;28;20228;-72
2022/10/18 06:54:10;;;;;;;12.20;6.43;;;;;;;14.08;100.00;97253.59;5038082;28;20205;-72
2022/10/18 06:56:36;;;;;;;12.52;6.60;;;;;;;14.06;100.00;97246.78;5038934;28;20201;-72
2022/10/18 06:59:04;;;;;;;10.82;6.00;;;;;;;14.04;100.00;97248.81;5039129;28;20229;-72
2022/10/18 07:01:30;;;;;;;11.80;6.35;;;;;;;14.14;100.00;97260.00;5037177;28;20229;-71
2022/10/18 07:03:57;;;;;;;14.50;6.43;;;;;;;14.24;100.00;97256.16;5037275;28;20217;-72
2022/10/18 07:06:25;;;;;;;9.57;5.50;;;;;;;14.41;100.00;97260.38;5039104;28;20810;-71
2022/10/18 07:08:53;;;;;;;14.55;6.00;;;;;;;14.35;100.00;97252.28;5039241;28;20204;-71
2022/10/18 07:11:22;;;;;;;10.30;5.55;;;;;;;14.39;100.00;97257.03;5038424;28;20226;-72
2022/10/18 07:13:49;;;;;;;11.40;5.65;;;;;;;14.30;100.00;97262.59;5037606;28;20208;-71
2022/10/18 07:16:17;;;;;;;12.75;6.10;;;;;;;14.38;100.00;97254.56;5039122;28;20204;-71
2022/10/18 07:18:47;;;;;;;13.05;7.18;;;;;;;14.41;100.00;97259.53;5038456;28;20225;-71
2022/10/18 07:21:16;;;;;;;17.75;6.85;;;;;;;14.42;100.00;97253.22;5038782;28;20322;-72
2022/10/18 07:23:45;;;;;;;16.27;6.50;;;;;;;14.39;100.00;97250.94;5037919;28;20232;-71
2022/10/18 07:26:14;;;;;;;11.93;6.75;;;;;;;14.42;100.00;97251.41;5038300;28;20205;-71
2022/10/18 07:28:40;;;;;;;13.15;6.28;;;;;;;14.34;100.00;97253.28;5038512;28;20220;-71
2022/10/18 07:31:09;;;;;;;17.05;7.25;;;;;;;14.28;100.00;97256.63;5038643;28;20211;-71
2022/10/18 07:33:36;;;;;;;17.48;8.77;;;;;;;14.37;100.00;97251.13;5037493;28;20201;-71
2022/10/18 07:36:06;;;;;;;17.70;8.73;;;;;;;14.48;100.00;97260.47;5038504;28;20202;-72
2022/10/18 07:38:32;;;;;;;26.50;10.70;;;;;;;14.49;100.00;97262.13;5039303;28;20205;-72
2022/10/18 07:41:02;;;;;;;19.73;8.32;;;;;;;14.69;100.00;97266.81;5037488;28;20382;-72
2022/10/18 07:43:29;;;;;;;19.20;7.75;;;;;;;14.71;100.00;97276.25;5036727;28;20201;-72
2022/10/18 07:45:58;;;;;;;11.77;7.30;;;;;;;14.76;100.00;97268.53;5038381;28;20564;-72
2022/10/18 07:48:25;;;;;;;17.90;7.70;;;;;;;14.95;100.00;97278.69;5038388;28;20209;-71
2022/10/18 07:50:51;;;;;;;11.90;7.07;;;;;;;15.09;100.00;97272.59;5037189;28;20232;-72
2022/10/18 07:53:18;;;;;;;11.48;6.43;;;;;;;15.13;100.00;97268.56;5036826;28;20552;-72
2022/10/18 07:55:45;;;;;;;13.43;7.10;;;;;;;15.23;100.00;97276.31;5037995;28;20205;-71
2022/10/18 07:58:13;;;;;;;13.45;6.53;;;;;;;15.44;100.00;97275.44;5037211;28;20564;-72
2022/10/18 08:00:40;;;;;;;14.88;6.93;;;;;;;15.45;100.00;97276.25;5037140;28;20486;-71
2022/10/18 08:03:06;;;;;;;13.57;7.10;;;;;;;15.56;100.00;97273.97;5036623;28;20228;-71
2022/10/18 08:05:33;;;;;;;14.07;7.07;;;;;;;15.60;100.00;97274.44;5036878;28;20201;-72
2022/10/18 08:07:59;;;;;;;14.10;6.97;;;;;;;15.68;100.00;97271.69;5037422;28;20406;-72
2022/10/18 08:10:26;;;;;;;14.32;7.40;;;;;;;15.81;100.00;97264.72;5037094;28;20662;-72
2022/10/18 08:12:53;;;;;;;16.50;6.97;;;;;;;15.87;100.00;97259.50;5035763;28;20539;-72
2022/10/18 08:15:23;;;;;;;12.23;7.25;;;;;;;16.00;100.00;97259.66;5037139;28;20596;-72
2022/10/18 08:17:50;;;;;;;15.15;7.93;;;;;;;16.07;100.00;97262.41;5037057;28;21045;-72
2022/10/18 08:20:17;;;;;;;15.55;8.88;;;;;;;16.11;100.00;97261.81;5036322;28;20221;-72
2022/10/18 08:22:43;;;;;;;19.38;8.23;;;;;;;16.27;100.00;97266.16;5036122;28;20338;-72
2022/10/18 08:25:10;;;;;;;18.13;8.45;;;;;;;16.29;100.00;97264.13;5036949;28;20204;-72
2022/10/18 08:27:36;;;;;;;15.88;8.18;;;;;;;16.45;100.00;97262.06;5036465;28;20677;-72
2022/10/18 08:30:03;;;;;;;17.42;7.45;;;;;;;16.66;100.00;97262.06;5036884;28;20603;-72
2022/10/18 08:32:31;;;;;;;16.80;8.70;;;;;;;16.85;100.00;97256.94;5036537;28;20227;-72
2022/10/18 08:34:58;;;;;;;13.93;7.63;;;;;;;17.03;100.00;97253.81;5036500;28;20212;-72
2022/10/18 08:37:24;;;;;;;20.08;9.40;;;;;;;17.22;100.00;97253.97;5036058;28;20256;-72
2022/10/18 08:39:51;;;;;;;19.27;8.38;;;;;;;17.31;100.00;97247.50;5036696;28;20225;-72
2022/10/18 08:42:38;;;;;;;13.07;7.00;;;;;;;17.51;100.00;97254.63;5035985;28;20597;-72
2022/10/18 08:45:06;;;;;;;16.92;7.78;;;;;;;17.45;100.00;97260.75;5036580;28;20860;-72
2022/10/18 08:47:39;;;;;;;18.92;7.53;;;;;;;17.55;100.00;97253.22;5036630;28;20205;-72
2022/10/18 08:50:12;;;;;;;13.95;6.90;;;;;;;17.60;100.00;97252.63;5036360;28;20204;-72
2022/10/18 08:52:47;;;;;;;18.55;7.03;;;;;;;17.88;100.00;97254.22;5035299;28;20236;-72
2022/10/18 08:55:21;;;;;;;11.95;6.68;;;;;;;17.83;100.00;97254.00;5036766;28;20204;-72
2022/10/18 08:57:50;;;;;;;17.65;7.30;;;;;;;17.90;100.00;97260.22;5036945;28;20209;-72
2022/10/18 09:00:18;;;;;;;14.80;6.82;;;;;;;18.01;100.00;97257.81;5036164;28;20294;-72
2022/10/18 09:03:00;;;;;;;10.80;6.32;;;;;;;18.28;100.00;97254.25;5035358;28;20713;-72
2022/10/18 09:05:36;;;;;;;14.10;6.75;;;;;;;18.48;100.00;97266.66;5036812;28;20208;-72
2022/10/18 09:08:27;;;;;;;11.75;5.72;;;;;;;18.72;100.00;97271.41;5036188;28;20201;-72
2022/10/18 09:11:03;;;;;;;12.38;5.90;;;;;;;18.59;100.00;97263.38;5036145;28;20208;-72
2022/10/18 09:13:57;;;;;;;10.70;5.78;;;;;;;18.64;100.00;97260.91;5035546;28;20548;-72
2022/10/18 09:16:32;;;;;;;13.30;5.85;;;;;;;18.76;100.00;97256.66;5035680;28;20582;-72
2022/10/18 09:19:10;;;;;;;9.75;5.55;;;;;;;18.85;100.00;97262.59;5036019;28;20212;-72
2022/10/18 09:21:48;;;;;;;13.45;6.28;;;;;;;19.03;100.00;97261.00;5036120;28;20220;-72
2022/10/18 09:24:22;;;;;;;12.68;5.25;;;;;;;19.05;100.00;97270.47;5034625;28;20565;-72
2022/10/18 09:26:55;;;;;;;11.45;5.40;;;;;;;19.24;99.20;97258.97;5036318;28;20209;-72
2022/10/18 09:29:37;;;;;;;14.10;4.93;;;;;;;19.37;99.35;97261.63;5036071;28;20639;-72
2022/10/18 09:32:14;;;;;;;12.02;5.65;;;;;;;19.38;99.95;97257.13;5035528;28;20298;-72
2022/10/18 09:34:50;;;;;;;13.27;5.25;;;;;;;19.58;98.28;97259.56;5035620;28;20669;-72
2022/10/18 09:37:20;;;;;;;10.88;5.15;;;;;;;19.43;96.20;97257.31;5036191;28;20255;-72
2022/10/18 09:39:50;;;;;;;7.53;4.13;;;;;;;19.42;96.92;97261.03;5035469;28;20225;-72
2022/10/18 09:42:25;;;;;;;8.52;4.63;;;;;;;19.64;95.71;97264.09;5035284;28;20577;-72
2022/10/18 09:44:58;;;;;;;14.13;5.30;;;;;;;19.73;96.19;97254.00;5035939;28;20244;-72
2022/10/18 09:47:29;;;;;;;10.05;4.05;;;;;;;19.76;96.41;97240.19;5035745;28;20205;-72
2022/10/18 09:50:00;;;;;;;6.72;3.75;;;;;;;19.83;93.86;97247.19;5035443;28;20212;-72
2022/10/18 09:52:32;;;;;;;9.52;3.97;;;;;;;19.97;93.23;97243.47;5035559;28;20243;-72
2022/10/18 09:55:01;;;;;;;10.00;3.70;;;;;;;19.99;92.83;97244.06;5035408;28;20732;-72
2022/10/18 09:57:33;;;;;;;7.55;3.08;;;;;;;20.09;90.24;97241.78;5035888;28;20208;-72
2022/10/18 10:00:02;;;;;;;10.15;4.10;;;;;;;20.12;91.26;97240.53;5035727;28;20502;-72
2022/10/18 10:02:28;;;;;;;11.43;3.75;;;;;;;20.20;91.14;97241.13;5034994;28;20760;-72
2022/10/18 10:04:55;;;;;;;8.00;2.92;;;;;;;20.16;89.64;97244.41;5035917;28;20209;-72
2022/10/18 10:07:26;;;;;;;5.57;3.53;;;;;;;20.28;89.68;97241.69;5035946;28;20201;-72
2022/10/18 10:09:56;;;;;;;7.70;3.95;;;;;;;20.44;87.69;97237.69;5034655;28;20703;-72
2022/10/18 10:12:27;;;;;;;7.72;3.13;;;;;;;20.49;88.40;97237.88;5035007;28;20488;-72
2022/10/18 10:14:53;;;;;;;7.50;3.42;;;;;;;20.51;87.05;97238.50;5036294;28;20707;-72
2022/10/18 10:17:26;;;;;;;7.80;3.45;;;;;;;20.72;86.37;97235.47;5035614;28;20391;-72
2022/10/18 10:19:58;;;;;;;7.80;3.22;;;;;;;20.71;85.71;97240.03;5035250;28;20271;-72
2022/10/18 10:22:35;;;;;;;6.65;3.88;;;;;;;20.88;86.62;97231.28;5035131;28;20217;-72
2022/10/18 10:25:02;;;;;;;16.83;4.05;;;;;;;20.97;84.80;97224.59;5035719;28;20581;-72
2022/10/18 10:27:42;;;;;;;6.75;3.30;;;;;;;21.18;84.03;97226.09;5035148;28;20197;-72
2022/10/18 10:30:23;;;;;;;6.57;3.15;;;;;;;21.27;84.18;97222.09;5035243;28;20193;-72
2022/10/18 10:32:51;;;;;;;7.30;3.08;;;;;;;21.04;84.19;97220.03;5034971;28;20232;-72
2022/10/18 10:35:23;;;;;;;9.23;3.33;;;;;;;20.94;85.31;97217.00;5035475;28;20581;-72
2022/10/18 10:37:54;;;;;;;8.40;3.08;;;;;;;20.83;83.99;97224.13;5039394;28;20208;-72
2022/10/18 10:40:22;;;;;;;9.27;3.22;;;;;;;20.91;84.93;97228.19;5039376;28;20228;-72
2022/10/18 10:43:02;;;;;;;5.35;2.80;;;;;;;20.97;83.78;97229.16;5038342;28;20220;-72
2022/10/18 10:45:32;;;;;;;5.43;3.20;;;;;;;21.01;83.41;97223.13;5039337;28;20247;-72
2022/10/18 10:48:06;;;;;;;5.05;2.90;;;;;;;21.27;83.90;97214.91;5038989;28;20213;-72
2022/10/18 10:50:47;;;;;;;6.72;3.28;;;;;;;21.20;84.21;97214.13;5038521;28;20213;-72
2022/10/18 10:53:28;;;;;;;7.68;3.53;;;;;;;21.10;83.51;97216.47;5037830;28;20708;-72
2022/10/18 10:55:56;;;;;;;5.47;3.17;;;;;;;20.99;83.81;97211.81;5038671;28;20662;-72
2022/10/18 10:58:23;;;;;;;7.78;3.65;;;;;;;20.79;84.61;97209.50;5038782;28;20205;-72
2022/10/18 11:00:49;;;;;;;7.25;3.42;;;;;;;20.92;85.11;97204.88;5038254;28;20264;-72
2022/10/18 11:03:19;;;;;;;9.32;3.05;;;;;;;21.17;85.96;97203.84;5037786;28;20228;-72
2022/10/18 11:05:47;;;;;;;4.93;3.17;;;;;;;21.23;85.22;97208.34;5036396;28;20205;-72
2022/10/18 11:08:18;;;;;;;8.70;3.20;;;;;;;21.27;85.39;97197.97;5036456;28;20209;-72
2022/10/18 11:11:02;;;;;;;7.75;3.20;;;;;;;21.34;84.95;97196.06;5037356;28;20223;-72
2022/10/18 11:13:42;;;;;;;4.72;2.95;;;;;;;21.46;84.49;97197.81;5038868;28;20205;-72
2022/10/18 11:16:16;;;;;;;8.32;3.20;;;;;;;21.67;83.54;97198.22;5038498;28;20220;-72
2022/10/18 11:18:46;;;;;;;4.38;2.08;;;;;;;21.64;81.75;97201.34;5038973;28;20200;-72
2022/10/18 11:21:17;;;;;;;10.18;3.10;;;;;;;21.76;82.93;97188.03;5038292;28;20234;-72
2022/10/18 11:23:45;;;;;;;7.00;2.80;;;;;;;21.78;82.15;97191.28;5037610;28;20201;-72
2022/10/18 11:26:34;;;;;;;5.38;3.10;;;;;;;21.92;82.19;97185.56;5038230;28;20193;-72
2022/10/18 11:29:16;;;;;;;6.50;3.20;;;;;;;21.70;83.04;97186.22;5035113;28;20620;-72
2022/10/18 11:31:51;;;;;;;5.43;2.70;;;;;;;21.70;82.96;97184.38;5037939;28;20225;-72